createdAt,value
2018-04-02T00:00:08.556Z,84.73
2018-04-02T00:02:35.944Z,83.90
2018-04-02T00:05:03.349Z,84.57
2018-04-02T00:07:30.734Z,93.97
2018-04-02T00:09:58.264Z,100.07
2018-04-02T00:12:25.660Z,89.23
2018-04-02T00:14:53.044Z,89.17
2018-04-02T00:17:20.438Z,93.00
2018-04-02T00:19:47.821Z,83.03
2018-04-02T00:22:15.279Z,90.30
2018-04-02T00:24:42.664Z,91.93
2018-04-02T00:27:10.049Z,87.87
2018-04-02T00:29:37.449Z,87.27
2018-04-02T00:32:04.830Z,84.13
2018-04-02T00:34:32.264Z,88.50
2018-04-02T00:36:59.661Z,88.30
2018-04-02T00:39:27.047Z,86.27
2018-04-02T00:41:54.809Z,89.07
2018-04-02T00:44:22.189Z,89.97
2018-04-02T00:46:49.570Z,89.87
2018-04-02T00:49:16.964Z,85.30
2018-04-02T00:51:44.393Z,93.27
2018-04-02T00:54:11.780Z,95.27
2018-04-02T00:56:39.162Z,90.90
2018-04-02T00:59:06.548Z,87.80
2018-04-02T01:01:33.934Z,90.67
2018-04-02T01:04:01.317Z,89.17
2018-04-02T01:06:28.707Z,83.73
2018-04-02T01:08:56.092Z,91.10
2018-04-02T01:11:23.469Z,87.47
2018-04-02T01:13:50.860Z,84.97
2018-04-02T01:16:18.249Z,84.73
2018-04-02T01:18:45.636Z,85.43
2018-04-02T01:21:13.012Z,87.33
2018-04-02T01:23:40.400Z,84.47
2018-04-02T01:26:07.785Z,86.37
2018-04-02T01:28:35.181Z,79.93
2018-04-02T01:31:02.570Z,83.20
2018-04-02T01:33:29.952Z,79.20
2018-04-02T01:35:57.328Z,82.40
2018-04-02T01:38:24.717Z,84.70
2018-04-02T01:40:52.109Z,87.57
2018-04-02T01:43:19.801Z,81.73
2018-04-02T01:45:47.181Z,82.03
2018-04-02T01:48:14.568Z,86.73
2018-04-02T01:50:41.965Z,80.80
2018-04-02T01:53:09.407Z,84.63
2018-04-02T01:55:36.805Z,78.60
2018-04-02T01:58:04.193Z,84.77
2018-04-02T02:00:31.572Z,79.80
2018-04-02T02:02:58.959Z,78.33
2018-04-02T02:05:26.339Z,80.83
2018-04-02T02:07:53.728Z,79.43
2018-04-02T02:10:21.116Z,76.00
2018-04-02T02:12:48.504Z,75.20
2018-04-02T02:15:15.888Z,87.00
2018-04-02T02:17:43.293Z,85.27
2018-04-02T02:20:10.684Z,86.77
2018-04-02T02:22:38.064Z,91.50
2018-04-02T02:25:05.456Z,94.80
2018-04-02T02:27:32.832Z,87.90
2018-04-02T02:30:00.224Z,96.73
2018-04-02T02:32:27.596Z,92.67
2018-04-02T02:34:54.984Z,98.33
2018-04-02T02:37:22.368Z,92.80
2018-04-02T02:39:50.085Z,88.57
2018-04-02T02:42:17.556Z,97.93
2018-04-02T02:44:44.941Z,96.77
2018-04-02T02:47:12.337Z,95.33
2018-04-02T02:49:39.753Z,91.97
2018-04-02T02:52:07.158Z,90.53
2018-04-02T02:54:34.539Z,99.77
2018-04-02T02:57:01.928Z,100.80
2018-04-02T02:59:29.313Z,96.37
2018-04-02T03:01:56.704Z,99.03
2018-04-02T03:04:24.137Z,98.53
2018-04-02T03:06:51.463Z,98.63
2018-04-02T03:09:18.862Z,103.83
2018-04-02T03:11:46.268Z,99.80
2018-04-02T03:14:13.666Z,99.93
2018-04-02T03:16:41.060Z,105.27
2018-04-02T03:19:08.529Z,103.97
2018-04-02T03:21:35.930Z,106.87
2018-04-02T03:24:03.392Z,107.57
2018-04-02T03:26:30.809Z,105.20
2018-04-02T03:28:58.164Z,101.00
2018-04-02T03:31:25.573Z,101.37
2018-04-02T03:33:53.052Z,102.47
2018-04-02T03:36:20.450Z,100.40
2018-04-02T03:38:47.847Z,101.67
2018-04-02T03:41:15.252Z,99.60
2018-04-02T03:43:42.656Z,100.67
2018-04-02T03:46:10.054Z,92.20
2018-04-02T03:48:37.436Z,96.60
2018-04-02T03:51:04.820Z,94.70
2018-04-02T03:53:32.220Z,96.30
2018-04-02T03:56:00.225Z,91.97
2018-04-02T03:58:27.285Z,93.40
2018-04-02T04:00:54.740Z,90.40
2018-04-02T04:03:22.128Z,87.10
2018-04-02T04:05:49.529Z,90.53
2018-04-02T04:08:16.908Z,90.13
2018-04-02T04:10:44.299Z,88.93
2018-04-02T04:13:11.784Z,89.27
2018-04-02T04:15:39.152Z,87.87
2018-04-02T04:18:06.540Z,90.93
2018-04-02T04:20:33.936Z,95.60
2018-04-02T04:23:01.314Z,87.73
2018-04-02T04:25:28.696Z,85.70
2018-04-02T04:27:56.087Z,85.50
2018-04-02T04:30:23.473Z,88.53
2018-04-02T04:32:50.864Z,86.27
2018-04-02T04:35:18.245Z,87.93
2018-04-02T04:37:45.646Z,87.53
2018-04-02T04:40:13.073Z,83.87
2018-04-02T04:42:40.417Z,83.53
2018-04-02T04:45:07.800Z,83.83
2018-04-02T04:47:35.195Z,79.90
2018-04-02T04:50:02.584Z,85.00
2018-04-02T04:52:29.977Z,85.90
2018-04-02T04:54:57.360Z,82.83
2018-04-02T04:57:24.752Z,80.80
2018-04-02T04:59:52.152Z,79.63
2018-04-02T05:02:19.640Z,84.57
2018-04-02T05:04:47.136Z,76.90
2018-04-02T05:07:14.513Z,79.27
2018-04-02T05:09:41.899Z,77.87
2018-04-02T05:12:09.293Z,77.87
2018-04-02T05:14:36.679Z,77.00
2018-04-02T05:17:04.076Z,76.77
2018-04-02T05:19:31.460Z,76.07
2018-04-02T05:21:58.884Z,75.17
2018-04-02T05:24:26.265Z,76.93
2018-04-02T05:26:53.692Z,76.57
2018-04-02T05:29:21.077Z,68.57
2018-04-02T05:31:48.476Z,74.70
2018-04-02T05:34:15.885Z,75.03
2018-04-02T05:36:43.274Z,73.33
2018-04-02T05:39:10.668Z,71.77
2018-04-02T05:41:38.041Z,71.63
2018-04-02T05:44:05.482Z,72.00
2018-04-02T05:46:32.954Z,71.87
2018-04-02T05:49:00.344Z,72.47
2018-04-02T05:51:27.785Z,70.60
2018-04-02T05:53:55.177Z,70.17
2018-04-02T05:56:22.589Z,68.87
2018-04-02T05:58:50.000Z,67.10
2018-04-02T06:01:17.378Z,68.30
2018-04-02T06:03:44.762Z,68.37
2018-04-02T06:06:12.226Z,69.60
2018-04-02T06:08:39.602Z,71.03
2018-04-02T06:11:07.000Z,67.67
2018-04-02T06:13:34.407Z,67.37
2018-04-02T06:16:01.785Z,68.63
2018-04-02T06:18:29.204Z,70.43
2018-04-02T06:20:56.588Z,63.43
2018-04-02T06:23:23.968Z,67.37
2018-04-02T06:25:51.381Z,64.73
2018-04-02T06:28:18.801Z,66.87
2018-04-02T06:30:46.160Z,63.50
2018-04-02T06:33:14.077Z,64.03
2018-04-02T06:35:41.444Z,64.00
2018-04-02T06:38:08.828Z,61.37
2018-04-02T06:40:36.249Z,59.63
2018-04-02T06:43:03.612Z,58.57
2018-04-02T06:45:31.065Z,57.57
2018-04-02T06:47:58.436Z,58.77
2018-04-02T06:50:25.824Z,58.83
2018-04-02T06:52:53.218Z,58.87
2018-04-02T06:55:20.931Z,58.40
2018-04-02T06:57:48.317Z,55.10
2018-04-02T07:00:15.697Z,54.27
2018-04-02T07:02:43.096Z,56.07
2018-04-02T07:05:10.479Z,55.50
2018-04-02T07:07:38.029Z,54.67
2018-04-02T07:10:05.394Z,54.93
2018-04-02T07:12:32.784Z,54.33
2018-04-02T07:15:00.160Z,52.90
2018-04-02T07:17:27.582Z,53.20
2018-04-02T07:19:54.938Z,54.20
2018-04-02T07:22:22.352Z,48.10
2018-04-02T07:24:49.740Z,50.37
2018-04-02T07:27:17.127Z,47.10
2018-04-02T07:29:44.607Z,47.53
2018-04-02T07:32:11.983Z,48.47
2018-04-02T07:34:39.424Z,48.93
2018-04-02T07:37:06.813Z,47.50
2018-04-02T07:39:34.193Z,48.37
2018-04-02T07:42:01.592Z,48.20
2018-04-02T07:44:28.974Z,48.23
2018-04-02T07:46:56.362Z,47.33
2018-04-02T07:49:23.740Z,45.50
2018-04-02T07:51:51.140Z,46.00
2018-04-02T07:54:18.531Z,45.40
2018-04-02T07:56:45.911Z,42.23
2018-04-02T07:59:13.293Z,44.30
2018-04-02T08:01:40.689Z,44.50
2018-04-02T08:04:08.068Z,42.50
2018-04-02T08:06:35.444Z,41.43
2018-04-02T08:09:02.832Z,43.37
2018-04-02T08:11:30.212Z,41.30
2018-04-02T08:13:57.614Z,41.90
2018-04-02T08:16:24.981Z,39.60
2018-04-02T08:18:52.454Z,39.10
2018-04-02T08:21:19.861Z,38.43
2018-04-02T08:23:47.222Z,38.50
2018-04-02T08:26:14.608Z,38.50
2018-04-02T08:28:41.993Z,37.53
2018-04-02T08:31:09.376Z,37.43
2018-04-02T08:33:36.770Z,37.37
2018-04-02T08:36:04.224Z,35.40
2018-04-02T08:38:31.601Z,37.70
2018-04-02T08:40:58.982Z,35.00
2018-04-02T08:43:26.448Z,35.10
2018-04-02T08:45:53.824Z,35.27
2018-04-02T08:48:21.198Z,35.50
2018-04-02T08:50:48.584Z,34.57
2018-04-02T08:53:15.999Z,34.13
2018-04-02T08:55:43.384Z,34.97
2018-04-02T08:58:10.767Z,31.70
2018-04-02T09:00:38.172Z,32.27
2018-04-02T09:03:05.589Z,31.53
2018-04-02T09:05:32.960Z,30.97
2018-04-02T09:08:00.382Z,29.90
2018-04-02T09:10:27.790Z,31.40
2018-04-02T09:12:55.181Z,30.60
2018-04-02T09:15:22.556Z,29.40
2018-04-02T09:17:49.957Z,27.90
2018-04-02T09:20:17.345Z,28.20
2018-04-02T09:22:44.737Z,28.37
2018-04-02T09:25:12.131Z,28.63
2018-04-02T09:27:39.528Z,28.77
2018-04-02T09:30:06.916Z,27.17
2018-04-02T09:32:34.306Z,26.90
2018-04-02T09:35:01.685Z,26.60
2018-04-02T09:37:29.072Z,27.10
2018-04-02T09:39:56.472Z,26.30
2018-04-02T09:42:23.849Z,26.60
2018-04-02T09:44:51.242Z,25.40
2018-04-02T09:47:18.629Z,24.80
2018-04-02T09:49:46.016Z,25.30
2018-04-02T09:52:13.424Z,25.50
2018-04-02T09:54:40.820Z,25.80
2018-04-02T09:57:08.200Z,24.87
2018-04-02T09:59:35.588Z,24.80
2018-04-02T10:02:08.464Z,23.07
2018-04-02T10:04:35.947Z,24.97
2018-04-02T10:07:03.254Z,23.50
2018-04-02T10:09:30.636Z,24.17
2018-04-02T10:11:58.072Z,21.23
2018-04-02T10:14:25.457Z,19.57
2018-04-02T10:16:52.840Z,19.53
2018-04-02T10:19:20.237Z,18.77
2018-04-02T10:21:47.616Z,18.60
2018-04-02T10:24:15.012Z,19.00
2018-04-02T10:26:42.433Z,17.50
2018-04-02T10:29:09.819Z,15.90
2018-04-02T10:31:37.197Z,15.50
2018-04-02T10:34:05.036Z,15.30
2018-04-02T10:36:32.425Z,16.20
2018-04-02T10:38:59.887Z,16.40
2018-04-02T10:41:27.281Z,16.23
2018-04-02T10:43:54.704Z,16.17
2018-04-02T10:46:22.103Z,14.50
2018-04-02T10:48:49.484Z,14.43
2018-04-02T10:51:16.891Z,12.63
2018-04-02T10:53:44.273Z,12.53
2018-04-02T10:56:11.673Z,11.90
2018-04-02T10:58:39.064Z,12.37
2018-04-02T11:01:06.446Z,12.57
2018-04-02T11:03:33.832Z,12.60
2018-04-02T11:06:01.237Z,13.23
2018-04-02T11:08:28.628Z,12.67
2018-04-02T11:10:55.991Z,12.40
2018-04-02T11:13:23.402Z,13.20
2018-04-02T11:15:50.799Z,13.77
2018-04-02T11:18:18.188Z,13.37
2018-04-02T11:20:45.574Z,12.80
2018-04-02T11:23:12.970Z,13.07
2018-04-02T11:25:40.400Z,13.53
2018-04-02T11:28:07.769Z,13.60
2018-04-02T11:30:35.153Z,13.50
2018-04-02T11:33:02.545Z,13.90
2018-04-02T11:35:29.942Z,14.30
2018-04-02T11:37:57.328Z,13.33
2018-04-02T11:40:24.720Z,13.83
2018-04-02T11:42:52.114Z,13.13
2018-04-02T11:45:19.496Z,13.53
2018-04-02T11:47:46.938Z,13.33
2018-04-02T11:50:14.304Z,13.20
2018-04-02T11:52:41.698Z,14.17
2018-04-02T11:55:09.100Z,12.77
2018-04-02T11:57:36.492Z,13.27
2018-04-02T12:00:03.876Z,14.30
2018-04-02T12:02:31.306Z,13.90
2018-04-02T12:04:58.684Z,14.10
2018-04-02T12:07:26.085Z,14.47
2018-04-02T12:09:53.495Z,14.27
2018-04-02T12:12:20.878Z,14.60
2018-04-02T12:14:48.274Z,13.60
2018-04-02T12:17:15.665Z,14.47
2018-04-02T12:19:43.058Z,14.20
2018-04-02T12:22:10.452Z,14.60
2018-04-02T12:24:38.153Z,15.13
2018-04-02T12:27:05.532Z,15.40
2018-04-02T12:29:32.912Z,14.80
2018-04-02T12:32:00.304Z,14.03
2018-04-02T12:34:27.709Z,14.40
2018-04-02T12:36:55.096Z,15.10
2018-04-02T12:39:22.480Z,14.80
2018-04-02T12:41:49.875Z,14.13
2018-04-02T12:44:17.276Z,15.00
2018-04-02T12:46:44.649Z,15.10
2018-04-02T12:49:12.047Z,14.63
2018-04-02T12:51:39.446Z,14.23
2018-04-02T12:54:06.840Z,13.90
2018-04-02T12:56:34.229Z,15.20
2018-04-02T12:59:01.672Z,13.97
2018-04-02T13:01:29.022Z,14.17
2018-04-02T13:03:56.415Z,13.83
2018-04-02T13:06:23.793Z,13.70
2018-04-02T13:08:51.196Z,12.77
2018-04-02T13:11:18.581Z,12.70
2018-04-02T13:13:45.965Z,12.47
2018-04-02T13:16:13.356Z,11.83
2018-04-02T13:18:40.739Z,12.77
2018-04-02T13:21:08.129Z,11.70
2018-04-02T13:23:35.538Z,11.63
2018-04-02T13:26:02.924Z,12.07
2018-04-02T13:28:30.313Z,11.13
2018-04-02T13:30:57.706Z,10.83
2018-04-02T13:33:25.162Z,12.17
2018-04-02T13:35:52.479Z,11.90
2018-04-02T13:38:19.895Z,11.67
2018-04-02T13:40:47.264Z,11.27
2018-04-02T13:43:14.664Z,11.80
2018-04-02T13:45:42.070Z,11.50
2018-04-02T13:48:09.461Z,11.80
2018-04-02T13:50:36.853Z,12.93
2018-04-02T13:53:04.236Z,12.03
2018-04-02T13:55:31.633Z,12.10
2018-04-02T13:57:59.012Z,11.63
2018-04-02T14:00:26.407Z,11.67
2018-04-02T14:02:53.821Z,12.37
2018-04-02T14:05:21.205Z,11.40
2018-04-02T14:07:48.593Z,11.90
2018-04-02T14:10:15.985Z,11.83
2018-04-02T14:12:43.372Z,11.20
2018-04-02T14:15:10.776Z,11.60
2018-04-02T14:17:38.162Z,11.87
2018-04-02T14:20:05.540Z,11.83
2018-04-02T14:22:32.932Z,11.27
2018-04-02T14:25:00.313Z,11.20
2018-04-02T14:27:27.708Z,11.60
2018-04-02T14:29:55.101Z,12.40
2018-04-02T14:32:22.492Z,12.07
2018-04-02T14:34:49.878Z,12.17
2018-04-02T14:37:17.256Z,12.17
2018-04-02T14:39:44.644Z,11.40
2018-04-02T14:42:12.037Z,11.33
2018-04-02T14:44:39.465Z,11.00
2018-04-02T14:47:06.804Z,10.80
2018-04-02T14:49:34.192Z,10.90
2018-04-02T14:52:01.580Z,10.63
2018-04-02T14:54:28.988Z,10.60
2018-04-02T14:56:56.368Z,10.63
2018-04-02T14:59:23.756Z,10.43
2018-04-02T15:01:51.149Z,10.83
2018-04-02T15:04:18.533Z,9.77
2018-04-02T15:06:45.912Z,10.00
2018-04-02T15:09:13.292Z,10.60
2018-04-02T15:11:40.685Z,10.10
2018-04-02T15:14:08.061Z,10.77
2018-04-02T15:16:35.451Z,10.00
2018-04-02T15:19:02.828Z,9.80
2018-04-02T15:21:30.208Z,10.20
2018-04-02T15:23:57.596Z,9.93
2018-04-02T15:26:24.992Z,10.00
2018-04-02T15:28:52.368Z,10.40
2018-04-02T15:31:19.788Z,10.47
2018-04-02T15:33:47.180Z,10.53
2018-04-02T15:36:15.516Z,10.47
2018-04-02T15:38:42.895Z,9.90
2018-04-02T15:41:10.334Z,10.17
2018-04-02T15:43:37.712Z,10.30
2018-04-02T15:46:05.096Z,10.40
2018-04-02T15:48:32.485Z,10.20
2018-04-02T15:50:59.876Z,10.30
2018-04-02T15:53:27.248Z,9.80
2018-04-02T15:55:54.645Z,10.73
2018-04-02T15:58:22.019Z,10.57
2018-04-02T16:00:49.404Z,10.07
2018-04-02T16:03:16.811Z,10.60
2018-04-02T16:05:44.183Z,10.27
2018-04-02T16:08:11.583Z,10.97
2018-04-02T16:10:38.957Z,10.90
2018-04-02T16:13:06.352Z,10.10
2018-04-02T16:15:33.740Z,10.40
2018-04-02T16:18:01.181Z,10.10
2018-04-02T16:20:28.579Z,10.63
2018-04-02T16:22:55.967Z,10.73
2018-04-02T16:25:23.356Z,11.77
2018-04-02T16:27:50.744Z,11.03
2018-04-02T16:30:18.140Z,10.83
2018-04-02T16:32:45.613Z,11.80
2018-04-02T16:35:13.007Z,11.30
2018-04-02T16:37:40.394Z,11.73
2018-04-02T16:40:07.784Z,11.00
2018-04-02T16:42:35.232Z,11.27
2018-04-02T16:45:02.544Z,11.63
2018-04-02T16:47:29.945Z,12.47
2018-04-02T16:49:57.339Z,11.80
2018-04-02T16:52:24.784Z,12.23
2018-04-02T16:54:52.172Z,11.63
2018-04-02T16:57:19.575Z,11.23
2018-04-02T16:59:46.958Z,11.30
2018-04-02T17:02:14.341Z,12.07
2018-04-02T17:04:41.737Z,11.90
2018-04-02T17:07:09.160Z,11.47
2018-04-02T17:09:36.640Z,11.17
2018-04-02T17:12:04.028Z,11.00
2018-04-02T17:14:31.424Z,11.57
2018-04-02T17:16:58.792Z,10.90
2018-04-02T17:19:26.200Z,11.13
2018-04-02T17:21:53.604Z,10.90
2018-04-02T17:24:20.992Z,11.00
2018-04-02T17:26:48.377Z,10.87
2018-04-02T17:29:15.763Z,10.70
2018-04-02T17:31:43.160Z,10.87
2018-04-02T17:34:10.562Z,10.23
2018-04-02T17:36:37.933Z,10.70
2018-04-02T17:39:06.175Z,10.90
2018-04-02T17:41:33.564Z,10.53
2018-04-02T17:44:00.949Z,10.50
2018-04-02T17:46:28.365Z,11.30
2018-04-02T17:48:55.752Z,11.30
2018-04-02T17:51:23.145Z,10.90
2018-04-02T17:53:50.525Z,10.50
2018-04-02T17:56:17.916Z,11.17
2018-04-02T17:58:45.312Z,11.23
2018-04-02T18:01:12.689Z,11.43
2018-04-02T18:03:40.080Z,11.13
2018-04-02T18:06:07.492Z,10.87
2018-04-02T18:08:34.911Z,11.00
2018-04-02T18:11:02.300Z,10.90
2018-04-02T18:13:29.693Z,11.00
2018-04-02T18:15:57.120Z,12.40
2018-04-02T18:18:24.500Z,10.80
2018-04-02T18:20:51.908Z,10.93
2018-04-02T18:23:19.282Z,11.90
2018-04-02T18:25:46.664Z,11.57
2018-04-02T18:28:14.057Z,12.03
2018-04-02T18:30:41.504Z,11.93
2018-04-02T18:33:08.959Z,12.30
2018-04-02T18:35:36.331Z,12.20
2018-04-02T18:38:03.758Z,12.80
2018-04-02T18:40:31.217Z,12.73
2018-04-02T18:42:58.634Z,13.03
2018-04-02T18:45:26.048Z,12.17
2018-04-02T18:47:53.465Z,13.20
2018-04-02T18:50:20.868Z,12.60
2018-04-02T18:52:48.268Z,14.20
2018-04-02T18:55:15.733Z,13.80
2018-04-02T18:57:43.242Z,12.63
2018-04-02T19:00:10.641Z,13.90
2018-04-02T19:02:38.032Z,13.67
2018-04-02T19:05:05.457Z,14.67
2018-04-02T19:07:32.853Z,14.47
2018-04-02T19:10:00.542Z,13.40
2018-04-02T19:12:27.929Z,14.53
2018-04-02T19:14:55.333Z,14.90
2018-04-02T19:17:22.733Z,15.13
2018-04-02T19:19:50.117Z,14.67
2018-04-02T19:22:17.554Z,15.47
2018-04-02T19:24:44.957Z,15.63
2018-04-02T19:27:12.353Z,15.50
2018-04-02T19:29:39.846Z,16.17
2018-04-02T19:32:07.327Z,15.17
2018-04-02T19:34:34.717Z,16.00
2018-04-02T19:37:02.116Z,16.17
2018-04-02T19:39:29.502Z,16.07
2018-04-02T19:41:56.892Z,16.60
2018-04-02T19:44:24.285Z,16.80
2018-04-02T19:46:51.665Z,16.27
2018-04-02T19:49:19.068Z,15.77
2018-04-02T19:51:47.152Z,16.80
2018-04-02T19:54:14.528Z,16.07
2018-04-02T19:56:41.932Z,16.40
2018-04-02T19:59:09.333Z,16.47
2018-04-02T20:01:36.724Z,16.13
2018-04-02T20:04:04.103Z,16.37
2018-04-02T20:06:31.510Z,14.43
2018-04-02T20:08:58.889Z,16.10
2018-04-02T20:11:26.298Z,15.60
2018-04-02T20:13:53.669Z,14.60
2018-04-02T20:16:21.056Z,14.83
2018-04-02T20:18:48.447Z,14.77
2018-04-02T20:21:15.845Z,14.70
2018-04-02T20:23:43.224Z,14.60
2018-04-02T20:26:10.596Z,16.70
2018-04-02T20:28:37.996Z,15.50
2018-04-02T20:31:05.389Z,15.27
2018-04-02T20:33:32.847Z,14.60
2018-04-02T20:36:00.240Z,15.30
2018-04-02T20:38:27.640Z,15.27
2018-04-02T20:40:55.031Z,15.00
2018-04-02T20:43:22.430Z,15.70
2018-04-02T20:45:49.802Z,16.43
2018-04-02T20:48:17.189Z,16.30
2018-04-02T20:50:44.577Z,14.87
2018-04-02T20:53:12.012Z,15.10
2018-04-02T20:55:39.396Z,15.00
2018-04-02T20:58:06.793Z,14.50
2018-04-02T21:00:34.176Z,14.77
2018-04-02T21:03:01.581Z,15.50
2018-04-02T21:05:28.964Z,14.70
2018-04-02T21:07:56.361Z,14.60
2018-04-02T21:10:23.764Z,14.27
2018-04-02T21:12:51.151Z,13.83
2018-04-02T21:15:18.612Z,14.67
2018-04-02T21:17:45.992Z,14.37
2018-04-02T21:20:13.397Z,14.60
2018-04-02T21:22:40.780Z,13.70
2018-04-02T21:25:08.162Z,13.97
2018-04-02T21:27:35.564Z,13.80
2018-04-02T21:30:02.948Z,13.97
2018-04-02T21:32:30.332Z,14.10
2018-04-02T21:34:57.727Z,14.20
2018-04-02T21:37:25.108Z,13.77
2018-04-02T21:39:52.500Z,14.00
2018-04-02T21:42:19.899Z,14.57
2018-04-02T21:44:47.292Z,13.97
2018-04-02T21:47:14.680Z,13.60
2018-04-02T21:49:42.085Z,12.80
2018-04-02T21:52:09.473Z,12.50
2018-04-02T21:54:36.853Z,13.17
2018-04-02T21:57:04.244Z,12.83
2018-04-02T21:59:31.657Z,12.57
2018-04-02T22:01:59.053Z,12.30
2018-04-02T22:04:26.444Z,12.70
2018-04-02T22:07:05.507Z,12.70
2018-04-02T22:09:32.888Z,12.20
2018-04-02T22:12:00.284Z,12.13
2018-04-02T22:14:27.675Z,12.07
2018-04-02T22:16:55.055Z,12.20
2018-04-02T22:19:22.447Z,12.00
2018-04-02T22:21:49.836Z,11.93
2018-04-02T22:24:17.216Z,11.70
2018-04-02T22:26:44.608Z,12.20
2018-04-02T22:29:12.002Z,11.90
2018-04-02T22:31:39.380Z,12.10
2018-04-02T22:34:06.785Z,12.47
2018-04-02T22:36:34.165Z,12.57
2018-04-02T22:39:01.574Z,12.00
2018-04-02T22:41:28.961Z,12.13
2018-04-02T22:43:56.341Z,12.40
2018-04-02T22:46:23.732Z,12.03
2018-04-02T22:48:51.122Z,12.50
2018-04-02T22:51:18.547Z,12.07
2018-04-02T22:53:45.936Z,13.13
2018-04-02T22:56:13.357Z,12.97
2018-04-02T22:58:40.735Z,12.47
2018-04-02T23:01:08.139Z,12.30
2018-04-02T23:03:35.509Z,12.30
2018-04-02T23:06:02.935Z,12.10
2018-04-02T23:08:30.336Z,12.00
2018-04-02T23:10:57.709Z,13.17
2018-04-02T23:13:25.111Z,12.77
2018-04-02T23:15:52.501Z,12.40
2018-04-02T23:18:19.920Z,12.97
2018-04-02T23:20:47.305Z,12.93
2018-04-02T23:23:14.680Z,12.70
2018-04-02T23:25:42.072Z,13.70
2018-04-02T23:28:09.470Z,13.37
2018-04-02T23:30:36.859Z,13.80
2018-04-02T23:33:04.240Z,13.70
2018-04-02T23:35:31.625Z,14.00
2018-04-02T23:37:59.016Z,13.60
2018-04-02T23:40:26.408Z,13.80
2018-04-02T23:42:53.795Z,14.30
2018-04-02T23:45:21.180Z,13.33
2018-04-02T23:47:48.576Z,13.90
2018-04-02T23:50:15.982Z,14.87
2018-04-02T23:52:43.365Z,14.40
2018-04-02T23:55:10.753Z,14.60
2018-04-02T23:57:38.156Z,14.60
